sensor_id;sensor_type;location;lat;lon;timestamp;P1;durP1;ratioP1;P2;durP2;ratioP2
66487;SDS011;53304;54.550;18.526;2023-12-20T00:02:02;1.80;;;0.75;;
66487;SDS011;53304;54.550;18.526;2023-12-20T00:04:30;0.75;;;0.60;;
66487;SDS011;53304;54.550;18.526;2023-12-20T00:07:00;1.55;;;0.80;;
66487;SDS011;53304;54.550;18.526;2023-12-20T00:09:26;1.45;;;0.80;;
66487;SDS011;53304;54.550;18.526;2023-12-20T00:11:52;1.90;;;0.80;;
66487;SDS011;53304;54.550;18.526;2023-12-20T00:14:19;1.02;;;0.60;;
66487;SDS011;53304;54.550;18.526;2023-12-20T00:16:47;0.75;;;0.70;;
66487;SDS011;53304;54.550;18.526;2023-12-20T00:19:14;1.30;;;0.60;;
66487;SDS011;53304;54.550;18.526;2023-12-20T00:21:42;2.33;;;0.75;;
66487;SDS011;53304;54.550;18.526;2023-12-20T00:24:10;1.00;;;0.57;;
66487;SDS011;53304;54.550;18.526;2023-12-20T00:26:35;2.42;;;0.80;;
66487;SDS011;53304;54.550;18.526;2023-12-20T00:29:04;2.05;;;0.80;;
66487;SDS011;53304;54.550;18.526;2023-12-20T00:31:29;1.65;;;0.65;;
66487;SDS011;53304;54.550;18.526;2023-12-20T00:33:54;2.35;;;0.80;;
66487;SDS011;53304;54.550;18.526;2023-12-20T00:36:25;1.20;;;0.50;;
66487;SDS011;53304;54.550;18.526;2023-12-20T00:38:53;1.60;;;0.80;;
66487;SDS011;53304;54.550;18.526;2023-12-20T00:41:22;2.03;;;0.70;;
66487;SDS011;53304;54.550;18.526;2023-12-20T00:43:52;1.67;;;0.70;;
66487;SDS011;53304;54.550;18.526;2023-12-20T00:46:19;1.60;;;0.70;;
66487;SDS011;53304;54.550;18.526;2023-12-20T00:48:47;2.13;;;0.82;;
66487;SDS011;53304;54.550;18.526;2023-12-20T00:51:12;0.70;;;0.65;;
66487;SDS011;53304;54.550;18.526;2023-12-20T00:53:40;0.75;;;0.70;;
66487;SDS011;53304;54.550;18.526;2023-12-20T00:56:05;1.00;;;0.65;;
66487;SDS011;53304;54.550;18.526;2023-12-20T00:58:31;2.05;;;0.63;;
66487;SDS011;53304;54.550;18.526;2023-12-20T01:00:57;0.98;;;0.63;;
66487;SDS011;53304;54.550;18.526;2023-12-20T01:03:25;4.72;;;0.80;;
66487;SDS011;53304;54.550;18.526;2023-12-20T01:05:51;1.90;;;0.60;;
66487;SDS011;53304;54.550;18.526;2023-12-20T01:08:18;1.58;;;0.68;;
66487;SDS011;53304;54.550;18.526;2023-12-20T01:10:44;1.17;;;0.70;;
66487;SDS011;53304;54.550;18.526;2023-12-20T01:13:11;2.72;;;0.60;;
66487;SDS011;53304;54.550;18.526;2023-12-20T01:15:37;2.10;;;0.70;;
66487;SDS011;53304;54.550;18.526;2023-12-20T01:18:02;1.70;;;0.50;;
66487;SDS011;53304;54.550;18.526;2023-12-20T01:20:28;0.75;;;0.70;;
66487;SDS011;53304;54.550;18.526;2023-12-20T01:22:53;1.90;;;0.60;;
66487;SDS011;53304;54.550;18.526;2023-12-20T01:25:19;1.33;;;0.70;;
66487;SDS011;53304;54.550;18.526;2023-12-20T01:27:46;1.38;;;0.70;;
66487;SDS011;53304;54.550;18.526;2023-12-20T01:30:12;0.93;;;0.68;;
66487;SDS011;53304;54.550;18.526;2023-12-20T01:32:38;2.45;;;0.80;;
66487;SDS011;53304;54.550;18.526;2023-12-20T01:35:05;1.55;;;0.60;;
66487;SDS011;53304;54.550;18.526;2023-12-20T01:37:36;0.82;;;0.63;;
66487;SDS011;53304;54.550;18.526;2023-12-20T01:40:01;1.73;;;0.70;;
66487;SDS011;53304;54.550;18.526;2023-12-20T01:42:27;1.38;;;0.60;;
66487;SDS011;53304;54.550;18.526;2023-12-20T01:44:52;1.40;;;0.70;;
66487;SDS011;53304;54.550;18.526;2023-12-20T01:47:18;2.53;;;0.80;;
66487;SDS011;53304;54.550;18.526;2023-12-20T01:49:43;2.35;;;0.70;;
66487;SDS011;53304;54.550;18.526;2023-12-20T01:52:12;1.55;;;0.70;;
66487;SDS011;53304;54.550;18.526;2023-12-20T01:54:37;1.50;;;0.73;;
66487;SDS011;53304;54.550;18.526;2023-12-20T01:57:04;1.73;;;0.70;;
66487;SDS011;53304;54.550;18.526;2023-12-20T01:59:31;2.50;;;0.93;;
66487;SDS011;53304;54.550;18.526;2023-12-20T02:01:56;1.60;;;0.70;;
66487;SDS011;53304;54.550;18.526;2023-12-20T02:04:26;1.30;;;0.75;;
66487;SDS011;53304;54.550;18.526;2023-12-20T02:06:52;2.10;;;0.80;;
66487;SDS011;53304;54.550;18.526;2023-12-20T02:09:20;2.42;;;0.90;;
66487;SDS011;53304;54.550;18.526;2023-12-20T02:11:51;2.30;;;0.82;;
66487;SDS011;53304;54.550;18.526;2023-12-20T02:14:16;2.55;;;1.13;;
66487;SDS011;53304;54.550;18.526;2023-12-20T02:16:41;1.58;;;0.68;;
66487;SDS011;53304;54.550;18.526;2023-12-20T02:19:13;3.08;;;1.00;;
66487;SDS011;53304;54.550;18.526;2023-12-20T02:21:40;1.55;;;0.80;;
66487;SDS011;53304;54.550;18.526;2023-12-20T02:24:08;2.03;;;0.70;;
66487;SDS011;53304;54.550;18.526;2023-12-20T02:26:33;1.70;;;0.65;;
66487;SDS011;53304;54.550;18.526;2023-12-20T02:29:04;2.03;;;0.80;;
66487;SDS011;53304;54.550;18.526;2023-12-20T02:31:29;4.63;;;0.93;;
66487;SDS011;53304;54.550;18.526;2023-12-20T02:33:54;2.85;;;1.05;;
66487;SDS011;53304;54.550;18.526;2023-12-20T02:36:22;1.98;;;0.88;;
66487;SDS011;53304;54.550;18.526;2023-12-20T02:38:50;1.23;;;0.70;;
66487;SDS011;53304;54.550;18.526;2023-12-20T02:41:18;1.52;;;0.80;;
66487;SDS011;53304;54.550;18.526;2023-12-20T02:43:43;5.18;;;0.98;;
66487;SDS011;53304;54.550;18.526;2023-12-20T02:46:09;3.90;;;0.98;;
66487;SDS011;53304;54.550;18.526;2023-12-20T02:48:34;2.63;;;0.98;;
66487;SDS011;53304;54.550;18.526;2023-12-20T02:51:02;3.05;;;0.82;;
66487;SDS011;53304;54.550;18.526;2023-12-20T02:53:27;5.00;;;0.80;;
66487;SDS011;53304;54.550;18.526;2023-12-20T02:55:53;1.88;;;0.77;;
66487;SDS011;53304;54.550;18.526;2023-12-20T02:58:18;1.85;;;0.70;;
66487;SDS011;53304;54.550;18.526;2023-12-20T03:00:46;2.70;;;0.70;;
66487;SDS011;53304;54.550;18.526;2023-12-20T03:03:14;2.17;;;0.80;;
66487;SDS011;53304;54.550;18.526;2023-12-20T03:05:39;1.98;;;0.80;;
66487;SDS011;53304;54.550;18.526;2023-12-20T03:08:07;4.05;;;0.90;;
66487;SDS011;53304;54.550;18.526;2023-12-20T03:10:33;2.13;;;0.90;;
66487;SDS011;53304;54.550;18.526;2023-12-20T03:13:00;5.20;;;0.90;;
66487;SDS011;53304;54.550;18.526;2023-12-20T03:15:26;2.58;;;1.02;;
66487;SDS011;53304;54.550;18.526;2023-12-20T03:17:56;2.45;;;0.73;;
66487;SDS011;53304;54.550;18.526;2023-12-20T03:20:24;2.15;;;1.00;;
66487;SDS011;53304;54.550;18.526;2023-12-20T03:22:51;2.10;;;1.00;;
66487;SDS011;53304;54.550;18.526;2023-12-20T03:25:18;5.70;;;1.00;;
66487;SDS011;53304;54.550;18.526;2023-12-20T03:27:46;1.40;;;0.70;;
66487;SDS011;53304;54.550;18.526;2023-12-20T03:30:12;3.53;;;1.10;;
66487;SDS011;53304;54.550;18.526;2023-12-20T03:32:38;1.35;;;0.90;;
66487;SDS011;53304;54.550;18.526;2023-12-20T03:35:06;2.42;;;0.70;;
66487;SDS011;53304;54.550;18.526;2023-12-20T03:37:36;1.67;;;0.80;;
66487;SDS011;53304;54.550;18.526;2023-12-20T03:40:02;4.43;;;0.85;;
66487;SDS011;53304;54.550;18.526;2023-12-20T03:42:30;1.42;;;0.80;;
66487;SDS011;53304;54.550;18.526;2023-12-20T03:44:55;1.98;;;0.75;;
66487;SDS011;53304;54.550;18.526;2023-12-20T03:47:21;2.45;;;0.90;;
66487;SDS011;53304;54.550;18.526;2023-12-20T03:49:51;3.60;;;0.90;;
66487;SDS011;53304;54.550;18.526;2023-12-20T03:52:19;2.63;;;0.85;;
66487;SDS011;53304;54.550;18.526;2023-12-20T03:54:47;1.75;;;0.80;;
66487;SDS011;53304;54.550;18.526;2023-12-20T03:57:12;3.35;;;0.88;;
66487;SDS011;53304;54.550;18.526;2023-12-20T03:59:38;1.85;;;0.77;;
66487;SDS011;53304;54.550;18.526;2023-12-20T04:02:03;2.65;;;0.95;;
66487;SDS011;53304;54.550;18.526;2023-12-20T04:04:29;2.45;;;0.80;;
66487;SDS011;53304;54.550;18.526;2023-12-20T04:06:57;1.50;;;0.73;;
66487;SDS011;53304;54.550;18.526;2023-12-20T04:09:24;1.05;;;0.70;;
66487;SDS011;53304;54.550;18.526;2023-12-20T04:11:52;3.22;;;0.82;;
66487;SDS011;53304;54.550;18.526;2023-12-20T04:14:20;1.80;;;0.85;;
66487;SDS011;53304;54.550;18.526;2023-12-20T04:16:48;1.60;;;0.85;;
66487;SDS011;53304;54.550;18.526;2023-12-20T04:19:13;3.60;;;0.98;;
66487;SDS011;53304;54.550;18.526;2023-12-20T04:21:41;2.75;;;1.10;;
66487;SDS011;53304;54.550;18.526;2023-12-20T04:24:08;2.33;;;0.85;;
66487;SDS011;53304;54.550;18.526;2023-12-20T04:26:34;2.42;;;0.98;;
66487;SDS011;53304;54.550;18.526;2023-12-20T04:28:59;2.65;;;1.00;;
66487;SDS011;53304;54.550;18.526;2023-12-20T04:31:24;1.80;;;0.80;;
66487;SDS011;53304;54.550;18.526;2023-12-20T04:33:50;3.00;;;0.70;;
66487;SDS011;53304;54.550;18.526;2023-12-20T04:36:15;4.07;;;1.08;;
66487;SDS011;53304;54.550;18.526;2023-12-20T04:38:43;1.50;;;0.98;;
66487;SDS011;53304;54.550;18.526;2023-12-20T04:41:13;3.08;;;1.00;;
66487;SDS011;53304;54.550;18.526;2023-12-20T04:43:43;2.15;;;0.80;;
66487;SDS011;53304;54.550;18.526;2023-12-20T04:46:09;2.05;;;0.93;;
66487;SDS011;53304;54.550;18.526;2023-12-20T04:48:39;3.30;;;1.00;;
66487;SDS011;53304;54.550;18.526;2023-12-20T04:51:04;2.20;;;0.90;;
66487;SDS011;53304;54.550;18.526;2023-12-20T04:53:31;2.35;;;1.23;;
66487;SDS011;53304;54.550;18.526;2023-12-20T04:55:56;2.30;;;0.82;;
66487;SDS011;53304;54.550;18.526;2023-12-20T04:58:21;2.30;;;0.90;;
66487;SDS011;53304;54.550;18.526;2023-12-20T05:00:47;2.83;;;1.02;;
66487;SDS011;53304;54.550;18.526;2023-12-20T05:03:12;2.42;;;1.00;;
66487;SDS011;53304;54.550;18.526;2023-12-20T05:05:42;2.75;;;1.00;;
66487;SDS011;53304;54.550;18.526;2023-12-20T05:08:10;2.60;;;1.05;;
66487;SDS011;53304;54.550;18.526;2023-12-20T05:10:35;2.70;;;0.98;;
66487;SDS011;53304;54.550;18.526;2023-12-20T05:13:05;4.95;;;0.90;;
66487;SDS011;53304;54.550;18.526;2023-12-20T05:15:30;2.50;;;0.88;;
66487;SDS011;53304;54.550;18.526;2023-12-20T05:17:56;2.40;;;0.80;;
66487;SDS011;53304;54.550;18.526;2023-12-20T05:20:21;3.42;;;1.10;;
66487;SDS011;53304;54.550;18.526;2023-12-20T05:22:49;2.75;;;0.82;;
66487;SDS011;53304;54.550;18.526;2023-12-20T05:25:14;2.10;;;0.95;;
66487;SDS011;53304;54.550;18.526;2023-12-20T05:27:44;3.95;;;1.10;;
66487;SDS011;53304;54.550;18.526;2023-12-20T05:30:10;2.28;;;1.10;;
66487;SDS011;53304;54.550;18.526;2023-12-20T05:32:36;6.22;;;1.27;;
66487;SDS011;53304;54.550;18.526;2023-12-20T05:35:04;3.05;;;1.00;;
66487;SDS011;53304;54.550;18.526;2023-12-20T05:37:29;3.72;;;1.10;;
66487;SDS011;53304;54.550;18.526;2023-12-20T05:39:57;3.20;;;1.05;;
66487;SDS011;53304;54.550;18.526;2023-12-20T05:42:22;3.03;;;0.80;;
66487;SDS011;53304;54.550;18.526;2023-12-20T05:44:48;4.65;;;1.10;;
66487;SDS011;53304;54.550;18.526;2023-12-20T05:47:13;2.90;;;0.93;;
66487;SDS011;53304;54.550;18.526;2023-12-20T05:49:41;4.00;;;1.10;;
66487;SDS011;53304;54.550;18.526;2023-12-20T05:52:09;2.40;;;1.05;;
66487;SDS011;53304;54.550;18.526;2023-12-20T05:54:34;4.65;;;1.10;;
66487;SDS011;53304;54.550;18.526;2023-12-20T05:57:00;4.70;;;1.20;;
66487;SDS011;53304;54.550;18.526;2023-12-20T05:59:25;2.70;;;0.82;;
66487;SDS011;53304;54.550;18.526;2023-12-20T06:01:51;2.60;;;0.90;;
66487;SDS011;53304;54.550;18.526;2023-12-20T06:04:21;4.55;;;1.17;;
66487;SDS011;53304;54.550;18.526;2023-12-20T06:06:46;2.33;;;0.90;;
66487;SDS011;53304;54.550;18.526;2023-12-20T06:09:14;1.95;;;0.80;;
66487;SDS011;53304;54.550;18.526;2023-12-20T06:11:44;3.20;;;1.05;;
66487;SDS011;53304;54.550;18.526;2023-12-20T06:14:10;2.22;;;0.90;;
66487;SDS011;53304;54.550;18.526;2023-12-20T06:16:40;2.38;;;0.82;;
66487;SDS011;53304;54.550;18.526;2023-12-20T06:19:08;3.38;;;1.23;;
66487;SDS011;53304;54.550;18.526;2023-12-20T06:21:36;4.90;;;1.00;;
66487;SDS011;53304;54.550;18.526;2023-12-20T06:24:04;4.80;;;1.45;;
66487;SDS011;53304;54.550;18.526;2023-12-20T06:26:30;12.52;;;1.70;;
66487;SDS011;53304;54.550;18.526;2023-12-20T06:28:55;7.63;;;1.38;;
66487;SDS011;53304;54.550;18.526;2023-12-20T06:31:21;8.00;;;1.40;;
66487;SDS011;53304;54.550;18.526;2023-12-20T06:33:46;5.20;;;1.20;;
66487;SDS011;53304;54.550;18.526;2023-12-20T06:36:12;5.03;;;1.15;;
66487;SDS011;53304;54.550;18.526;2023-12-20T06:38:38;3.28;;;1.00;;
66487;SDS011;53304;54.550;18.526;2023-12-20T06:41:04;8.02;;;1.25;;
66487;SDS011;53304;54.550;18.526;2023-12-20T06:43:29;7.10;;;1.23;;
66487;SDS011;53304;54.550;18.526;2023-12-20T06:45:59;10.60;;;1.38;;
66487;SDS011;53304;54.550;18.526;2023-12-20T06:48:28;8.80;;;1.25;;
66487;SDS011;53304;54.550;18.526;2023-12-20T06:50:53;7.03;;;1.75;;
66487;SDS011;53304;54.550;18.526;2023-12-20T06:53:18;6.47;;;1.52;;
66487;SDS011;53304;54.550;18.526;2023-12-20T06:55:46;13.05;;;1.90;;
66487;SDS011;53304;54.550;18.526;2023-12-20T06:58:11;8.05;;;1.77;;
66487;SDS011;53304;54.550;18.526;2023-12-20T07:00:37;7.88;;;1.63;;
66487;SDS011;53304;54.550;18.526;2023-12-20T07:03:03;8.35;;;1.60;;
66487;SDS011;53304;54.550;18.526;2023-12-20T07:05:31;9.25;;;1.63;;
66487;SDS011;53304;54.550;18.526;2023-12-20T07:07:56;6.25;;;1.70;;
66487;SDS011;53304;54.550;18.526;2023-12-20T07:10:21;9.07;;;2.08;;
66487;SDS011;53304;54.550;18.526;2023-12-20T07:12:49;8.65;;;1.50;;
66487;SDS011;53304;54.550;18.526;2023-12-20T07:15:16;4.68;;;1.73;;
66487;SDS011;53304;54.550;18.526;2023-12-20T07:17:41;6.00;;;1.50;;
66487;SDS011;53304;54.550;18.526;2023-12-20T07:20:09;6.50;;;1.50;;
66487;SDS011;53304;54.550;18.526;2023-12-20T07:22:36;5.15;;;1.20;;
66487;SDS011;53304;54.550;18.526;2023-12-20T07:25:04;6.05;;;1.48;;
66487;SDS011;53304;54.550;18.526;2023-12-20T07:27:30;4.85;;;1.23;;
66487;SDS011;53304;54.550;18.526;2023-12-20T07:29:57;3.92;;;1.20;;
66487;SDS011;53304;54.550;18.526;2023-12-20T07:32:23;4.00;;;1.52;;
66487;SDS011;53304;54.550;18.526;2023-12-20T07:34:48;4.00;;;1.40;;
66487;SDS011;53304;54.550;18.526;2023-12-20T07:37:18;5.18;;;1.65;;
66487;SDS011;53304;54.550;18.526;2023-12-20T07:39:49;5.85;;;1.52;;
66487;SDS011;53304;54.550;18.526;2023-12-20T07:42:14;5.75;;;1.42;;
66487;SDS011;53304;54.550;18.526;2023-12-20T07:44:45;5.05;;;1.52;;
66487;SDS011;53304;54.550;18.526;2023-12-20T07:47:13;4.95;;;1.50;;
66487;SDS011;53304;54.550;18.526;2023-12-20T07:49:44;7.72;;;1.40;;
66487;SDS011;53304;54.550;18.526;2023-12-20T07:52:12;5.40;;;1.30;;
66487;SDS011;53304;54.550;18.526;2023-12-20T07:54:40;5.40;;;1.52;;
66487;SDS011;53304;54.550;18.526;2023-12-20T07:57:05;6.00;;;1.40;;
66487;SDS011;53304;54.550;18.526;2023-12-20T07:59:30;8.05;;;1.40;;
66487;SDS011;53304;54.550;18.526;2023-12-20T08:01:56;4.95;;;1.30;;
66487;SDS011;53304;54.550;18.526;2023-12-20T08:04:21;5.10;;;1.15;;
66487;SDS011;53304;54.550;18.526;2023-12-20T08:06:47;5.15;;;1.52;;
66487;SDS011;53304;54.550;18.526;2023-12-20T08:09:20;4.50;;;1.40;;
66487;SDS011;53304;54.550;18.526;2023-12-20T08:11:46;3.85;;;1.27;;
66487;SDS011;53304;54.550;18.526;2023-12-20T08:14:14;4.95;;;1.25;;
66487;SDS011;53304;54.550;18.526;2023-12-20T08:16:40;5.22;;;1.30;;
66487;SDS011;53304;54.550;18.526;2023-12-20T08:19:06;4.85;;;1.33;;
66487;SDS011;53304;54.550;18.526;2023-12-20T08:21:31;3.65;;;1.63;;
66487;SDS011;53304;54.550;18.526;2023-12-20T08:23:56;5.63;;;1.67;;
66487;SDS011;53304;54.550;18.526;2023-12-20T08:26:22;5.38;;;1.60;;
66487;SDS011;53304;54.550;18.526;2023-12-20T08:28:49;4.47;;;1.17;;
66487;SDS011;53304;54.550;18.526;2023-12-20T08:31:15;5.05;;;1.30;;
66487;SDS011;53304;54.550;18.526;2023-12-20T08:33:46;3.85;;;1.15;;
66487;SDS011;53304;54.550;18.526;2023-12-20T08:36:12;4.80;;;1.45;;
66487;SDS011;53304;54.550;18.526;2023-12-20T08:38:42;6.13;;;1.48;;
66487;SDS011;53304;54.550;18.526;2023-12-20T08:41:10;4.47;;;1.30;;
66487;SDS011;53304;54.550;18.526;2023-12-20T08:43:36;3.95;;;1.30;;
66487;SDS011;53304;54.550;18.526;2023-12-20T08:46:01;5.78;;;1.30;;
66487;SDS011;53304;54.550;18.526;2023-12-20T08:48:31;4.18;;;1.27;;
66487;SDS011;53304;54.550;18.526;2023-12-20T08:50:57;5.38;;;1.30;;
66487;SDS011;53304;54.550;18.526;2023-12-20T08:53:24;3.13;;;1.30;;
66487;SDS011;53304;54.550;18.526;2023-12-20T08:55:52;2.78;;;1.20;;
66487;SDS011;53304;54.550;18.526;2023-12-20T08:58:17;3.08;;;1.35;;
66487;SDS011;53304;54.550;18.526;2023-12-20T09:00:48;4.88;;;1.50;;
66487;SDS011;53304;54.550;18.526;2023-12-20T09:03:13;5.95;;;1.40;;
66487;SDS011;53304;54.550;18.526;2023-12-20T09:05:41;8.13;;;1.60;;
66487;SDS011;53304;54.550;18.526;2023-12-20T09:08:06;5.97;;;1.52;;
66487;SDS011;53304;54.550;18.526;2023-12-20T09:10:35;4.90;;;1.55;;
66487;SDS011;53304;54.550;18.526;2023-12-20T09:13:03;4.05;;;1.40;;
66487;SDS011;53304;54.550;18.526;2023-12-20T09:15:29;4.50;;;1.25;;
66487;SDS011;53304;54.550;18.526;2023-12-20T09:17:55;5.03;;;1.50;;
66487;SDS011;53304;54.550;18.526;2023-12-20T09:20:23;3.63;;;1.50;;
66487;SDS011;53304;54.550;18.526;2023-12-20T09:22:56;5.07;;;1.42;;
66487;SDS011;53304;54.550;18.526;2023-12-20T09:25:22;4.22;;;1.50;;
66487;SDS011;53304;54.550;18.526;2023-12-20T09:27:48;4.20;;;1.60;;
66487;SDS011;53304;54.550;18.526;2023-12-20T09:30:16;4.32;;;1.40;;
66487;SDS011;53304;54.550;18.526;2023-12-20T09:32:43;3.33;;;1.45;;
66487;SDS011;53304;54.550;18.526;2023-12-20T09:35:11;5.03;;;1.52;;
66487;SDS011;53304;54.550;18.526;2023-12-20T09:37:39;4.32;;;1.42;;
66487;SDS011;53304;54.550;18.526;2023-12-20T09:40:09;3.40;;;1.45;;
66487;SDS011;53304;54.550;18.526;2023-12-20T09:45:21;6.20;;;2.08;;
66487;SDS011;53304;54.550;18.526;2023-12-20T09:47:49;5.28;;;2.00;;
66487;SDS011;53304;54.550;18.526;2023-12-20T09:50:18;5.90;;;1.98;;
66487;SDS011;53304;54.550;18.526;2023-12-20T09:52:50;4.90;;;1.90;;
66487;SDS011;53304;54.550;18.526;2023-12-20T09:55:17;5.25;;;1.42;;
66487;SDS011;53304;54.550;18.526;2023-12-20T09:57:44;5.97;;;1.98;;
66487;SDS011;53304;54.550;18.526;2023-12-20T10:00:12;4.80;;;1.92;;
66487;SDS011;53304;54.550;18.526;2023-12-20T10:02:45;4.00;;;1.38;;
66487;SDS011;53304;54.550;18.526;2023-12-20T10:05:15;6.65;;;1.70;;
66487;SDS011;53304;54.550;18.526;2023-12-20T10:07:44;7.22;;;1.83;;
66487;SDS011;53304;54.550;18.526;2023-12-20T10:10:13;5.22;;;1.67;;
66487;SDS011;53304;54.550;18.526;2023-12-20T10:12:38;4.80;;;1.70;;
66487;SDS011;53304;54.550;18.526;2023-12-20T10:15:06;3.95;;;1.55;;
66487;SDS011;53304;54.550;18.526;2023-12-20T10:17:32;4.65;;;1.45;;
66487;SDS011;53304;54.550;18.526;2023-12-20T10:19:58;2.88;;;1.58;;
66487;SDS011;53304;54.550;18.526;2023-12-20T10:22:23;4.43;;;1.88;;
66487;SDS011;53304;54.550;18.526;2023-12-20T10:24:51;4.55;;;1.52;;
66487;SDS011;53304;54.550;18.526;2023-12-20T10:27:19;5.32;;;1.98;;
66487;SDS011;53304;54.550;18.526;2023-12-20T10:29:44;4.10;;;1.73;;
66487;SDS011;53304;54.550;18.526;2023-12-20T10:34:54;4.53;;;1.55;;
66487;SDS011;53304;54.550;18.526;2023-12-20T10:37:20;4.50;;;1.60;;
66487;SDS011;53304;54.550;18.526;2023-12-20T10:39:55;4.03;;;1.73;;
66487;SDS011;53304;54.550;18.526;2023-12-20T10:42:24;7.20;;;1.95;;
66487;SDS011;53304;54.550;18.526;2023-12-20T10:44:53;4.75;;;1.70;;
66487;SDS011;53304;54.550;18.526;2023-12-20T10:47:21;3.55;;;1.77;;
66487;SDS011;53304;54.550;18.526;2023-12-20T10:49:47;4.18;;;1.60;;
66487;SDS011;53304;54.550;18.526;2023-12-20T10:52:15;3.30;;;1.50;;
66487;SDS011;53304;54.550;18.526;2023-12-20T10:54:45;5.38;;;1.70;;
66487;SDS011;53304;54.550;18.526;2023-12-20T10:57:13;4.38;;;1.80;;
66487;SDS011;53304;54.550;18.526;2023-12-20T10:59:40;3.78;;;1.60;;
66487;SDS011;53304;54.550;18.526;2023-12-20T11:02:06;6.30;;;1.90;;
66487;SDS011;53304;54.550;18.526;2023-12-20T11:04:40;4.45;;;1.90;;
66487;SDS011;53304;54.550;18.526;2023-12-20T11:12:50;7.20;;;1.88;;
66487;SDS011;53304;54.550;18.526;2023-12-20T11:15:19;3.63;;;1.70;;
66487;SDS011;53304;54.550;18.526;2023-12-20T11:17:54;4.57;;;1.90;;
66487;SDS011;53304;54.550;18.526;2023-12-20T11:20:22;3.88;;;1.58;;
66487;SDS011;53304;54.550;18.526;2023-12-20T11:22:52;4.90;;;1.70;;
66487;SDS011;53304;54.550;18.526;2023-12-20T11:30:49;6.43;;;2.17;;
66487;SDS011;53304;54.550;18.526;2023-12-20T11:33:16;5.78;;;1.67;;
66487;SDS011;53304;54.550;18.526;2023-12-20T11:35:42;3.90;;;1.70;;
66487;SDS011;53304;54.550;18.526;2023-12-20T11:38:10;5.05;;;1.85;;
66487;SDS011;53304;54.550;18.526;2023-12-20T11:40:36;5.10;;;1.73;;
66487;SDS011;53304;54.550;18.526;2023-12-20T11:43:02;12.50;;;2.33;;
66487;SDS011;53304;54.550;18.526;2023-12-20T11:45:29;10.05;;;2.08;;
66487;SDS011;53304;54.550;18.526;2023-12-20T11:47:56;9.27;;;1.92;;
66487;SDS011;53304;54.550;18.526;2023-12-20T11:50:24;6.47;;;1.80;;
66487;SDS011;53304;54.550;18.526;2023-12-20T11:52:52;3.78;;;1.48;;
66487;SDS011;53304;54.550;18.526;2023-12-20T11:55:20;4.43;;;1.60;;
66487;SDS011;53304;54.550;18.526;2023-12-20T11:57:52;5.95;;;1.90;;
66487;SDS011;53304;54.550;18.526;2023-12-20T12:00:18;4.78;;;1.50;;
66487;SDS011;53304;54.550;18.526;2023-12-20T12:02:59;7.00;;;1.60;;
66487;SDS011;53304;54.550;18.526;2023-12-20T12:05:24;4.80;;;1.77;;
66487;SDS011;53304;54.550;18.526;2023-12-20T12:07:50;4.00;;;1.67;;
66487;SDS011;53304;54.550;18.526;2023-12-20T12:10:16;5.07;;;1.50;;
66487;SDS011;53304;54.550;18.526;2023-12-20T12:12:44;4.50;;;1.42;;
66487;SDS011;53304;54.550;18.526;2023-12-20T12:15:09;4.85;;;1.50;;
66487;SDS011;53304;54.550;18.526;2023-12-20T12:17:37;5.15;;;1.42;;
66487;SDS011;53304;54.550;18.526;2023-12-20T12:20:06;2.67;;;1.45;;
66487;SDS011;53304;54.550;18.526;2023-12-20T12:22:34;4.35;;;1.67;;
66487;SDS011;53304;54.550;18.526;2023-12-20T12:25:11;2.85;;;1.35;;
66487;SDS011;53304;54.550;18.526;2023-12-20T12:27:40;3.58;;;1.60;;
66487;SDS011;53304;54.550;18.526;2023-12-20T12:30:06;2.22;;;1.40;;
66487;SDS011;53304;54.550;18.526;2023-12-20T12:32:36;3.17;;;1.50;;
66487;SDS011;53304;54.550;18.526;2023-12-20T12:35:05;4.00;;;1.30;;
66487;SDS011;53304;54.550;18.526;2023-12-20T12:37:38;3.55;;;1.40;;
66487;SDS011;53304;54.550;18.526;2023-12-20T12:40:09;2.25;;;1.20;;
66487;SDS011;53304;54.550;18.526;2023-12-20T12:42:36;4.32;;;1.55;;
66487;SDS011;53304;54.550;18.526;2023-12-20T12:45:09;3.97;;;1.40;;
66487;SDS011;53304;54.550;18.526;2023-12-20T12:47:36;2.47;;;1.45;;
66487;SDS011;53304;54.550;18.526;2023-12-20T12:50:02;3.75;;;1.50;;
66487;SDS011;53304;54.550;18.526;2023-12-20T12:52:30;3.33;;;1.40;;
66487;SDS011;53304;54.550;18.526;2023-12-20T12:55:00;3.17;;;1.48;;
66487;SDS011;53304;54.550;18.526;2023-12-20T12:57:26;3.53;;;1.45;;
66487;SDS011;53304;54.550;18.526;2023-12-20T12:59:56;2.78;;;1.20;;
66487;SDS011;53304;54.550;18.526;2023-12-20T13:02:24;4.00;;;1.50;;
66487;SDS011;53304;54.550;18.526;2023-12-20T13:04:51;4.20;;;1.27;;
66487;SDS011;53304;54.550;18.526;2023-12-20T13:07:19;2.08;;;1.15;;
66487;SDS011;53304;54.550;18.526;2023-12-20T13:09:46;3.28;;;1.45;;
66487;SDS011;53304;54.550;18.526;2023-12-20T13:12:12;2.30;;;1.30;;
66487;SDS011;53304;54.550;18.526;2023-12-20T13:14:40;3.53;;;1.55;;
66487;SDS011;53304;54.550;18.526;2023-12-20T13:17:05;3.20;;;1.30;;
66487;SDS011;53304;54.550;18.526;2023-12-20T13:19:33;3.83;;;1.30;;
66487;SDS011;53304;54.550;18.526;2023-12-20T13:21:59;3.83;;;1.60;;
66487;SDS011;53304;54.550;18.526;2023-12-20T13:24:27;2.67;;;1.27;;
66487;SDS011;53304;54.550;18.526;2023-12-20T13:26:55;10.25;;;1.40;;
66487;SDS011;53304;54.550;18.526;2023-12-20T13:29:20;2.85;;;1.50;;
66487;SDS011;53304;54.550;18.526;2023-12-20T13:31:45;2.92;;;1.33;;
66487;SDS011;53304;54.550;18.526;2023-12-20T13:34:11;4.35;;;1.40;;
66487;SDS011;53304;54.550;18.526;2023-12-20T13:36:37;2.85;;;1.30;;
66487;SDS011;53304;54.550;18.526;2023-12-20T13:39:05;2.53;;;1.38;;
66487;SDS011;53304;54.550;18.526;2023-12-20T13:41:32;2.67;;;1.20;;
66487;SDS011;53304;54.550;18.526;2023-12-20T13:43:59;1.98;;;1.25;;
66487;SDS011;53304;54.550;18.526;2023-12-20T13:46:28;2.70;;;1.30;;
66487;SDS011;53304;54.550;18.526;2023-12-20T13:48:57;3.95;;;1.17;;
66487;SDS011;53304;54.550;18.526;2023-12-20T13:51:22;2.72;;;1.30;;
66487;SDS011;53304;54.550;18.526;2023-12-20T13:53:48;3.33;;;1.23;;
66487;SDS011;53304;54.550;18.526;2023-12-20T13:56:16;3.67;;;1.13;;
66487;SDS011;53304;54.550;18.526;2023-12-20T13:58:45;2.55;;;1.23;;
66487;SDS011;53304;54.550;18.526;2023-12-20T14:01:12;1.67;;;1.05;;
66487;SDS011;53304;54.550;18.526;2023-12-20T14:03:39;1.75;;;1.30;;
66487;SDS011;53304;54.550;18.526;2023-12-20T14:06:07;3.08;;;1.30;;
66487;SDS011;53304;54.550;18.526;2023-12-20T14:08:32;2.20;;;1.13;;
66487;SDS011;53304;54.550;18.526;2023-12-20T14:10:58;3.17;;;1.23;;
66487;SDS011;53304;54.550;18.526;2023-12-20T14:13:29;2.95;;;1.30;;
66487;SDS011;53304;54.550;18.526;2023-12-20T14:15:54;2.38;;;1.20;;
66487;SDS011;53304;54.550;18.526;2023-12-20T14:18:20;2.40;;;1.25;;
66487;SDS011;53304;54.550;18.526;2023-12-20T14:20:45;5.07;;;1.45;;
66487;SDS011;53304;54.550;18.526;2023-12-20T14:23:12;3.88;;;1.42;;
66487;SDS011;53304;54.550;18.526;2023-12-20T14:25:40;3.20;;;1.50;;
66487;SDS011;53304;54.550;18.526;2023-12-20T14:28:08;6.43;;;1.42;;
66487;SDS011;53304;54.550;18.526;2023-12-20T14:30:37;3.58;;;1.40;;
66487;SDS011;53304;54.550;18.526;2023-12-20T14:33:08;3.15;;;1.38;;
66487;SDS011;53304;54.550;18.526;2023-12-20T14:35:33;5.63;;;1.20;;
66487;SDS011;53304;54.550;18.526;2023-12-20T14:37:58;2.30;;;1.10;;
66487;SDS011;53304;54.550;18.526;2023-12-20T14:40:24;3.65;;;1.30;;
66487;SDS011;53304;54.550;18.526;2023-12-20T14:42:54;3.40;;;1.45;;
66487;SDS011;53304;54.550;18.526;2023-12-20T14:45:22;2.50;;;1.20;;
66487;SDS011;53304;54.550;18.526;2023-12-20T14:47:48;3.50;;;1.20;;
66487;SDS011;53304;54.550;18.526;2023-12-20T14:50:14;8.68;;;1.40;;